createdAt,value
2023-01-09T00:02:09.086Z,2.00
2023-01-09T00:04:39.500Z,2.00
2023-01-09T00:07:10.343Z,2.00
2023-01-09T00:09:40.903Z,2.00
2023-01-09T00:12:11.676Z,2.00
2023-01-09T00:14:43.576Z,2.00
2023-01-09T00:17:14.338Z,2.00
2023-01-09T00:19:44.978Z,2.00
2023-01-09T00:22:15.807Z,2.00
2023-01-09T00:24:46.264Z,2.00
2023-01-09T00:27:17.092Z,2.10
2023-01-09T00:29:49.685Z,2.00
2023-01-09T00:32:21.255Z,2.00
2023-01-09T00:34:51.895Z,2.00
2023-01-09T00:37:23.003Z,2.00
2023-01-09T00:39:53.486Z,1.90
2023-01-09T00:42:29.013Z,2.00
2023-01-09T00:45:05.211Z,2.00
2023-01-09T00:47:40.074Z,2.00
2023-01-09T00:50:15.271Z,2.00
2023-01-09T00:52:46.866Z,1.90
2023-01-09T00:55:18.556Z,2.00
2023-01-09T00:57:49.620Z,1.90
2023-01-09T01:00:22.318Z,1.90
2023-01-09T01:02:53.106Z,1.90
2023-01-09T01:05:41.268Z,1.90
2023-01-09T01:08:16.720Z,1.90
2023-01-09T01:10:49.120Z,1.90
2023-01-09T01:13:20.457Z,1.90
2023-01-09T01:15:52.331Z,1.90
2023-01-09T01:18:23.255Z,1.90
2023-01-09T01:20:53.729Z,1.90
2023-01-09T01:23:24.565Z,1.90
2023-01-09T01:25:55.060Z,1.90
2023-01-09T01:28:25.804Z,1.80
2023-01-09T01:30:58.204Z,1.80
2023-01-09T01:33:29.058Z,1.80
2023-01-09T01:36:04.680Z,1.70
2023-01-09T01:38:36.319Z,1.70
2023-01-09T01:41:07.765Z,1.70
2023-01-09T01:43:56.046Z,1.80
2023-01-09T01:46:28.621Z,1.90
2023-01-09T01:49:05.519Z,2.00
2023-01-09T01:51:39.531Z,2.00
2023-01-09T01:54:24.377Z,2.00
2023-01-09T01:56:59.798Z,2.00
2023-01-09T01:59:36.342Z,2.00
2023-01-09T02:02:09.905Z,2.10
2023-01-09T02:04:41.164Z,2.20
2023-01-09T02:07:12.174Z,2.20
2023-01-09T02:09:44.716Z,2.20
2023-01-09T02:12:23.843Z,2.10
2023-01-09T02:14:59.716Z,2.10
2023-01-09T02:18:12.562Z,2.00
2023-01-09T02:20:54.283Z,2.00
2023-01-09T02:24:10.460Z,2.00
2023-01-09T02:27:21.133Z,2.00
2023-01-09T02:30:38.530Z,2.00
2023-01-09T02:33:38.914Z,1.90
2023-01-09T02:36:30.551Z,1.90
2023-01-09T02:39:17.349Z,1.80
2023-01-09T02:41:54.736Z,1.80
2023-01-09T02:44:27.447Z,1.80
2023-01-09T02:47:08.721Z,1.70
2023-01-09T02:49:41.321Z,1.80
2023-01-09T02:52:31.900Z,1.70
2023-01-09T02:55:12.524Z,1.70
2023-01-09T02:57:58.589Z,1.70
2023-01-09T03:00:38.664Z,1.70
2023-01-09T03:03:19.705Z,1.80
2023-01-09T03:05:59.219Z,1.80
2023-01-09T03:08:36.605Z,1.80
2023-01-09T03:11:09.231Z,1.80
2023-01-09T03:13:48.358Z,1.80
2023-01-09T03:16:27.092Z,1.80
2023-01-09T03:19:01.057Z,1.80
2023-01-09T03:21:33.624Z,1.80
2023-01-09T03:24:05.430Z,1.80
2023-01-09T03:26:36.420Z,1.80
2023-01-09T03:29:07.150Z,1.70
2023-01-09T03:31:38.162Z,1.70
2023-01-09T03:34:10.438Z,1.60
2023-01-09T03:36:41.210Z,1.60
2023-01-09T03:39:12.089Z,1.60
2023-01-09T03:41:42.932Z,1.60
2023-01-09T03:44:13.393Z,1.60
2023-01-09T03:46:44.209Z,1.60
2023-01-09T03:49:16.132Z,1.60
2023-01-09T03:51:47.249Z,1.70
2023-01-09T03:54:17.967Z,1.80
2023-01-09T03:56:48.851Z,1.90
2023-01-09T03:59:19.331Z,1.90
2023-01-09T04:01:50.440Z,1.90
2023-01-09T04:04:23.070Z,1.90
2023-01-09T04:06:53.774Z,1.90
2023-01-09T04:09:24.320Z,1.90
2023-01-09T04:11:55.263Z,1.90
2023-01-09T04:14:26.089Z,1.90
2023-01-09T04:16:57.099Z,1.90
2023-01-09T04:19:29.060Z,2.00
2023-01-09T04:21:59.891Z,2.10
2023-01-09T04:24:32.235Z,2.10
2023-01-09T04:27:03.272Z,2.10
2023-01-09T04:29:33.861Z,2.10
2023-01-09T04:32:04.616Z,2.10
2023-01-09T04:34:36.588Z,2.10
2023-01-09T04:37:07.488Z,2.10
2023-01-09T04:39:38.679Z,2.00
2023-01-09T04:42:09.512Z,1.90
2023-01-09T04:44:40.384Z,1.90
2023-01-09T04:47:13.645Z,1.90
2023-01-09T04:49:45.589Z,1.90
2023-01-09T04:52:16.372Z,1.80
2023-01-09T04:54:46.949Z,1.80
2023-01-09T04:57:17.720Z,1.80
2023-01-09T04:59:48.277Z,1.90
2023-01-09T05:02:19.147Z,1.90
2023-01-09T05:04:51.119Z,1.90
2023-01-09T05:07:21.800Z,1.90
2023-01-09T05:09:52.193Z,2.00
2023-01-09T05:12:23.038Z,2.00
2023-01-09T05:14:53.823Z,2.00
2023-01-09T05:17:24.580Z,2.00
2023-01-09T05:19:56.440Z,2.00
2023-01-09T05:22:27.129Z,1.90
2023-01-09T05:25:00.286Z,1.90
2023-01-09T05:27:31.494Z,1.80
2023-01-09T05:30:01.936Z,1.70
2023-01-09T05:32:33.743Z,1.70
2023-01-09T05:35:06.177Z,1.60
2023-01-09T05:37:36.877Z,1.60
2023-01-09T05:40:08.796Z,1.60
2023-01-09T05:42:39.613Z,1.60
2023-01-09T05:45:11.944Z,1.60
2023-01-09T05:47:42.882Z,1.60
2023-01-09T05:50:16.374Z,1.60
2023-01-09T05:52:47.131Z,1.60
2023-01-09T05:55:17.901Z,1.60
2023-01-09T05:57:48.739Z,1.60
2023-01-09T06:00:20.926Z,1.60
2023-01-09T06:02:51.733Z,1.70
2023-01-09T06:05:23.713Z,1.70
2023-01-09T06:07:54.682Z,1.70
2023-01-09T06:10:25.060Z,1.70
2023-01-09T06:12:55.878Z,1.80
2023-01-09T06:15:26.441Z,1.80
2023-01-09T06:17:57.137Z,1.80
2023-01-09T06:20:29.013Z,1.80
2023-01-09T06:22:59.851Z,1.80
2023-01-09T06:25:30.350Z,1.80
2023-01-09T06:28:01.053Z,1.90
2023-01-09T06:30:31.438Z,1.80
2023-01-09T06:33:02.205Z,1.80
2023-01-09T06:35:34.059Z,1.90
2023-01-09T06:38:04.956Z,1.90
2023-01-09T06:40:35.372Z,1.90
2023-01-09T06:43:06.299Z,2.00
2023-01-09T06:45:36.753Z,2.00
2023-01-09T06:48:07.985Z,2.10
2023-01-09T06:50:39.888Z,2.10
2023-01-09T06:53:10.892Z,2.20
2023-01-09T06:55:41.480Z,2.20
2023-01-09T06:58:12.337Z,2.30
2023-01-09T07:00:42.849Z,2.30
2023-01-09T07:03:19.785Z,2.30
2023-01-09T07:05:52.088Z,2.40
2023-01-09T07:08:22.892Z,2.30
2023-01-09T07:10:53.326Z,2.30
2023-01-09T07:13:24.128Z,2.40
2023-01-09T07:15:54.903Z,2.40
2023-01-09T07:18:25.870Z,2.40
2023-01-09T07:20:57.766Z,2.50
2023-01-09T07:23:28.538Z,2.50
2023-01-09T07:25:59.648Z,2.60
2023-01-09T07:28:30.472Z,2.60
2023-01-09T07:31:04.758Z,2.70
2023-01-09T07:33:35.930Z,2.70
2023-01-09T07:36:09.005Z,2.70
2023-01-09T07:38:39.770Z,2.80
2023-01-09T07:41:10.243Z,2.80
2023-01-09T07:43:41.336Z,2.80
2023-01-09T07:46:11.836Z,2.80
2023-01-09T07:48:42.567Z,2.80
2023-01-09T07:51:14.562Z,2.80
2023-01-09T07:53:45.263Z,2.80
2023-01-09T07:56:15.798Z,2.90
2023-01-09T07:58:46.516Z,3.00
2023-01-09T08:01:17.104Z,3.10
2023-01-09T08:03:47.924Z,3.10
2023-01-09T08:06:19.939Z,3.20
2023-01-09T08:08:51.310Z,3.20
2023-01-09T08:11:21.754Z,3.20
2023-01-09T08:13:54.017Z,3.20
2023-01-09T08:16:25.438Z,3.20
2023-01-09T08:18:56.199Z,3.30
2023-01-09T08:21:28.040Z,3.30
2023-01-09T08:23:58.731Z,3.30
2023-01-09T08:26:29.219Z,3.30
2023-01-09T08:29:00.150Z,3.40
2023-01-09T08:31:30.619Z,3.40
2023-01-09T08:34:01.573Z,3.30
2023-01-09T08:36:33.510Z,3.30
2023-01-09T08:39:04.434Z,3.40
2023-01-09T08:41:52.021Z,3.30
2023-01-09T08:44:40.578Z,3.40
2023-01-09T08:47:11.348Z,3.40
2023-01-09T08:49:42.121Z,3.40
2023-01-09T08:52:14.775Z,3.40
2023-01-09T08:54:45.619Z,3.40
2023-01-09T08:57:16.191Z,3.40
2023-01-09T08:59:46.901Z,3.50
2023-01-09T09:02:17.423Z,3.50
2023-01-09T09:04:52.941Z,3.50
2023-01-09T09:07:27.623Z,3.60
2023-01-09T09:09:58.450Z,3.60
2023-01-09T09:12:29.058Z,3.60
2023-01-09T09:15:20.194Z,3.60
2023-01-09T09:17:53.678Z,3.70
2023-01-09T09:20:27.132Z,3.80
2023-01-09T09:22:59.323Z,3.80
2023-01-09T09:25:30.441Z,3.80
2023-01-09T09:28:01.459Z,3.90
2023-01-09T09:30:32.359Z,3.90
2023-01-09T09:33:06.024Z,4.00
2023-01-09T09:35:36.819Z,4.10
2023-01-09T09:38:09.060Z,4.10
2023-01-09T09:41:02.034Z,4.10
2023-01-09T09:44:17.948Z,4.20
2023-01-09T09:46:59.674Z,4.20
2023-01-09T09:49:39.095Z,4.20
2023-01-09T09:52:21.605Z,4.20
2023-01-09T09:54:53.972Z,4.30
2023-01-09T09:57:34.174Z,4.30
2023-01-09T10:00:07.259Z,4.30
2023-01-09T10:02:51.747Z,4.30
2023-01-09T10:05:28.562Z,4.30
2023-01-09T10:08:15.750Z,4.30
2023-01-09T10:10:53.710Z,4.30
2023-01-09T10:13:44.182Z,4.40
2023-01-09T10:16:32.020Z,4.40
2023-01-09T10:19:16.247Z,4.60
2023-01-09T10:21:54.090Z,4.60
2023-01-09T10:24:48.995Z,4.80
2023-01-09T10:27:34.584Z,4.70
2023-01-09T10:30:39.044Z,5.00
2023-01-09T10:33:33.598Z,5.20
2023-01-09T10:36:38.254Z,5.40
2023-01-09T10:39:19.204Z,5.50
2023-01-09T10:41:58.799Z,5.60
2023-01-09T10:44:37.645Z,5.60
2023-01-09T10:47:17.201Z,5.50
2023-01-09T10:49:50.756Z,5.60
2023-01-09T10:52:26.556Z,5.70
2023-01-09T10:55:02.413Z,5.70
2023-01-09T10:57:43.684Z,5.80
2023-01-09T11:00:23.662Z,5.80
2023-01-09T11:02:56.065Z,5.70
2023-01-09T11:05:32.682Z,5.70
2023-01-09T11:08:12.777Z,5.90
2023-01-09T11:10:54.658Z,6.00
2023-01-09T11:13:27.223Z,6.10
2023-01-09T11:16:09.641Z,6.10
2023-01-09T11:18:48.996Z,6.10
2023-01-09T11:21:35.849Z,6.20
2023-01-09T11:24:31.008Z,6.20
2023-01-09T11:27:27.185Z,6.00
2023-01-09T11:30:28.012Z,6.10
2023-01-09T11:33:00.573Z,6.30
2023-01-09T11:35:34.716Z,6.30
2023-01-09T11:38:16.858Z,6.20
2023-01-09T11:40:51.021Z,6.30
2023-01-09T11:43:34.502Z,6.40
2023-01-09T11:46:06.938Z,6.60
2023-01-09T11:48:42.536Z,6.50
2023-01-09T11:51:23.103Z,6.50
2023-01-09T11:54:15.609Z,6.40
2023-01-09T11:56:47.629Z,6.30
2023-01-09T11:59:21.235Z,6.20
2023-01-09T12:02:34.671Z,6.30
2023-01-09T12:05:21.917Z,6.30
2023-01-09T12:08:29.510Z,6.40
2023-01-09T12:11:31.159Z,6.40
2023-01-09T12:14:38.617Z,6.30
2023-01-09T12:17:48.905Z,6.20
2023-01-09T12:20:38.457Z,6.20
2023-01-09T12:23:30.095Z,6.10
2023-01-09T12:26:16.749Z,6.10
2023-01-09T12:29:26.649Z,6.20
2023-01-09T12:32:23.812Z,6.10
2023-01-09T12:35:03.758Z,6.30
2023-01-09T12:38:28.010Z,6.30
2023-01-09T12:41:37.389Z,6.40
2023-01-09T12:44:35.840Z,6.40
2023-01-09T12:47:45.811Z,6.30
2023-01-09T12:51:08.283Z,6.30
2023-01-09T12:53:45.581Z,6.30
2023-01-09T12:56:21.789Z,6.40
2023-01-09T12:58:58.175Z,6.30
2023-01-09T13:01:38.848Z,6.30
2023-01-09T13:04:19.623Z,6.40
2023-01-09T13:06:55.625Z,6.40
2023-01-09T13:09:34.699Z,6.40
2023-01-09T13:12:12.370Z,6.40
2023-01-09T13:14:53.445Z,6.40
2023-01-09T13:17:31.364Z,6.40
2023-01-09T13:20:01.951Z,6.30
2023-01-09T13:22:32.880Z,6.30
2023-01-09T13:25:43.532Z,6.40
2023-01-09T13:28:20.180Z,6.30
2023-01-09T13:31:46.044Z,6.40
2023-01-09T13:34:22.858Z,6.50
2023-01-09T13:36:57.018Z,6.60
2023-01-09T13:39:32.394Z,6.50
2023-01-09T13:42:24.008Z,6.50
2023-01-09T13:44:57.539Z,6.50
2023-01-09T13:47:30.103Z,6.50
2023-01-09T13:50:23.677Z,6.40
2023-01-09T13:52:54.660Z,6.40
2023-01-09T13:55:37.238Z,6.50
2023-01-09T13:58:26.885Z,6.50
2023-01-09T14:01:01.995Z,6.50
2023-01-09T14:03:38.266Z,6.50
2023-01-09T14:06:19.240Z,6.50
2023-01-09T14:09:05.832Z,6.60
2023-01-09T14:11:37.048Z,6.60
2023-01-09T14:14:30.258Z,6.60
2023-01-09T14:17:03.542Z,6.60
2023-01-09T14:19:40.119Z,6.60
2023-01-09T14:22:27.045Z,6.60
2023-01-09T14:25:02.773Z,6.60
2023-01-09T14:28:09.100Z,6.60
2023-01-09T14:31:04.205Z,6.60
2023-01-09T14:33:36.026Z,6.70
2023-01-09T14:36:15.860Z,6.80
2023-01-09T14:38:50.475Z,6.80
2023-01-09T14:41:40.396Z,6.80
2023-01-09T14:44:28.980Z,6.70
2023-01-09T14:47:08.735Z,6.80
2023-01-09T14:49:45.933Z,6.80
2023-01-09T14:52:25.126Z,6.80
2023-01-09T14:55:01.107Z,6.80
2023-01-09T14:57:34.226Z,6.80
2023-01-09T15:00:07.930Z,6.80
2023-01-09T15:02:41.382Z,6.80
2023-01-09T15:05:16.789Z,6.90
2023-01-09T15:07:53.941Z,7.00
2023-01-09T15:10:29.551Z,7.00
2023-01-09T15:13:04.463Z,6.90
2023-01-09T15:15:36.471Z,7.00
2023-01-09T15:18:11.111Z,7.00
2023-01-09T15:20:41.950Z,6.90
2023-01-09T15:23:25.054Z,6.90
2023-01-09T15:25:56.616Z,6.90
2023-01-09T15:28:33.312Z,7.00
2023-01-09T15:31:08.674Z,6.90
2023-01-09T15:33:41.995Z,6.80
2023-01-09T15:36:18.780Z,6.80
2023-01-09T15:38:51.268Z,6.90
2023-01-09T15:41:45.101Z,6.90
2023-01-09T15:44:20.358Z,6.90
2023-01-09T15:46:52.058Z,6.80
2023-01-09T15:49:24.150Z,6.80
2023-01-09T15:51:55.599Z,6.80
2023-01-09T15:54:31.441Z,6.80
2023-01-09T15:57:35.711Z,6.80
2023-01-09T16:00:42.032Z,6.70
2023-01-09T16:03:22.097Z,6.60
2023-01-09T16:06:05.415Z,6.50
2023-01-09T16:08:38.516Z,6.50
2023-01-09T16:11:11.231Z,6.50
2023-01-09T16:13:46.894Z,6.40
2023-01-09T16:16:31.196Z,6.40
2023-01-09T16:19:02.234Z,6.40
2023-01-09T16:21:37.339Z,6.40
2023-01-09T16:24:26.199Z,6.30
2023-01-09T16:27:26.273Z,6.20
2023-01-09T16:29:59.555Z,6.10
2023-01-09T16:32:32.676Z,6.10
2023-01-09T16:35:06.435Z,6.00
2023-01-09T16:37:38.979Z,6.00
2023-01-09T16:40:27.158Z,5.90
2023-01-09T16:43:01.982Z,5.80
2023-01-09T16:45:36.112Z,5.70
2023-01-09T16:48:15.061Z,5.70
2023-01-09T16:50:46.307Z,5.60
2023-01-09T16:53:24.224Z,5.50
2023-01-09T16:55:55.811Z,5.50
2023-01-09T16:58:28.869Z,5.50
2023-01-09T17:00:59.586Z,5.50
2023-01-09T17:03:29.950Z,5.60
2023-01-09T17:06:03.306Z,5.60
2023-01-09T17:08:38.139Z,5.50
2023-01-09T17:11:18.726Z,5.50
2023-01-09T17:13:49.519Z,5.60
2023-01-09T17:16:20.969Z,5.70
2023-01-09T17:18:51.971Z,5.70
2023-01-09T17:21:24.971Z,5.70
2023-01-09T17:24:10.913Z,5.80
2023-01-09T17:27:01.578Z,5.80
2023-01-09T17:29:32.425Z,5.70
2023-01-09T17:32:04.637Z,5.80
2023-01-09T17:34:35.246Z,5.80
2023-01-09T17:37:06.039Z,5.90
2023-01-09T17:39:38.357Z,5.90
2023-01-09T17:42:09.229Z,6.00
2023-01-09T17:44:39.830Z,6.00
2023-01-09T17:47:16.473Z,5.90
2023-01-09T17:49:46.953Z,5.80
2023-01-09T17:52:17.773Z,5.80
2023-01-09T17:54:49.684Z,5.80
2023-01-09T17:57:20.459Z,5.80
2023-01-09T17:59:50.929Z,5.70
2023-01-09T18:02:22.021Z,5.60
2023-01-09T18:04:52.538Z,5.50
2023-01-09T18:07:23.361Z,5.50
2023-01-09T18:09:55.268Z,5.40
2023-01-09T18:12:26.130Z,5.30
2023-01-09T18:14:57.264Z,5.20
2023-01-09T18:17:28.068Z,5.20
2023-01-09T18:19:58.859Z,5.20
2023-01-09T18:22:29.717Z,5.20
2023-01-09T18:25:02.266Z,5.20
2023-01-09T18:27:33.465Z,5.20
2023-01-09T18:30:05.552Z,5.20
2023-01-09T18:32:37.162Z,5.10
2023-01-09T18:35:08.975Z,5.20
2023-01-09T18:37:39.850Z,5.10
2023-01-09T18:40:13.863Z,5.00
2023-01-09T18:42:46.482Z,5.00
2023-01-09T18:45:17.145Z,4.90
2023-01-09T18:47:48.217Z,4.80
2023-01-09T18:50:19.382Z,4.70
2023-01-09T18:52:50.164Z,4.80
2023-01-09T18:55:23.084Z,4.70
2023-01-09T18:57:53.969Z,4.60
2023-01-09T19:00:24.613Z,4.60
2023-01-09T19:02:55.650Z,4.50
2023-01-09T19:05:26.801Z,4.30
2023-01-09T19:07:57.964Z,4.00
2023-01-09T19:10:29.817Z,3.90
2023-01-09T19:13:00.689Z,4.30
2023-01-09T19:15:31.122Z,4.50
2023-01-09T19:18:02.032Z,4.70
2023-01-09T19:20:32.623Z,4.90
2023-01-09T19:23:03.501Z,4.80
2023-01-09T19:25:35.639Z,4.70
2023-01-09T19:28:06.741Z,4.60
2023-01-09T19:30:37.621Z,4.50
2023-01-09T19:33:09.072Z,4.50
2023-01-09T19:35:40.538Z,4.40
2023-01-09T19:38:11.409Z,4.40
2023-01-09T19:40:43.349Z,4.30
2023-01-09T19:43:26.010Z,4.30
2023-01-09T19:45:57.554Z,4.20
2023-01-09T19:48:30.495Z,4.00
2023-01-09T19:51:08.054Z,3.90
2023-01-09T19:53:39.627Z,3.90
2023-01-09T19:56:15.162Z,3.70
2023-01-09T19:58:52.079Z,3.50
2023-01-09T20:01:24.876Z,3.50
2023-01-09T20:03:57.784Z,3.40
2023-01-09T20:06:28.152Z,3.30
2023-01-09T20:09:01.484Z,3.30
2023-01-09T20:11:34.880Z,3.10
2023-01-09T20:14:05.889Z,3.00
2023-01-09T20:16:36.469Z,2.90
2023-01-09T20:19:08.812Z,2.70
2023-01-09T20:21:39.702Z,2.50
2023-01-09T20:24:15.014Z,2.50
2023-01-09T20:26:47.528Z,2.50
2023-01-09T20:29:18.380Z,2.60
2023-01-09T20:31:48.968Z,2.70
2023-01-09T20:34:19.880Z,2.80
2023-01-09T20:36:50.450Z,2.80
2023-01-09T20:39:22.011Z,2.90
2023-01-09T20:41:53.868Z,2.90
2023-01-09T20:44:25.116Z,2.90
2023-01-09T20:46:55.763Z,3.10
2023-01-09T20:49:26.768Z,3.10
2023-01-09T20:51:57.491Z,3.20
2023-01-09T20:54:28.354Z,3.30
2023-01-09T20:57:00.480Z,3.40
2023-01-09T20:59:31.367Z,3.50
2023-01-09T21:02:02.163Z,3.60
2023-01-09T21:04:33.135Z,3.70
2023-01-09T21:07:04.095Z,3.80
2023-01-09T21:09:35.037Z,3.90
2023-01-09T21:12:24.823Z,3.90
2023-01-09T21:14:56.065Z,3.80
2023-01-09T21:17:27.235Z,3.80
2023-01-09T21:19:58.131Z,3.90
2023-01-09T21:22:29.109Z,3.90
2023-01-09T21:25:00.119Z,3.90
2023-01-09T21:27:33.370Z,3.90
2023-01-09T21:30:04.997Z,3.70
2023-01-09T21:32:35.507Z,3.70
2023-01-09T21:35:07.972Z,3.70
2023-01-09T21:37:40.485Z,3.70
2023-01-09T21:40:16.179Z,3.80
2023-01-09T21:43:05.838Z,3.80
2023-01-09T21:45:56.022Z,3.80
2023-01-09T21:48:26.619Z,3.70
2023-01-09T21:50:57.599Z,3.70
2023-01-09T21:53:30.207Z,3.70
2023-01-09T21:56:05.003Z,3.70
2023-01-09T21:58:37.622Z,3.70
2023-01-09T22:01:08.837Z,3.70
2023-01-09T22:03:39.526Z,3.70
2023-01-09T22:06:10.979Z,3.70
2023-01-09T22:08:41.551Z,3.70
2023-01-09T22:11:13.641Z,3.70
2023-01-09T22:13:49.723Z,3.70
2023-01-09T22:16:21.009Z,3.90
2023-01-09T22:18:51.998Z,3.80
2023-01-09T22:21:23.245Z,3.80
2023-01-09T22:23:54.571Z,3.90
2023-01-09T22:26:25.604Z,3.90
2023-01-09T22:28:57.785Z,3.90
2023-01-09T22:31:32.765Z,4.00
2023-01-09T22:34:04.003Z,4.00
2023-01-09T22:36:35.240Z,4.00
2023-01-09T22:39:06.147Z,4.00
2023-01-09T22:41:37.087Z,4.00
2023-01-09T22:44:10.721Z,4.00
2023-01-09T22:46:41.662Z,4.00
2023-01-09T22:49:14.255Z,4.00
2023-01-09T22:51:45.164Z,4.00
2023-01-09T22:54:15.757Z,4.00
2023-01-09T22:56:46.811Z,4.00
2023-01-09T22:59:18.681Z,4.00
2023-01-09T23:01:49.603Z,3.90
2023-01-09T23:07:42.080Z,4.00
2023-01-09T23:10:13.256Z,4.00
2023-01-09T23:12:47.817Z,3.90
2023-01-09T23:15:19.804Z,3.90
2023-01-09T23:17:50.004Z,3.90
2023-01-09T23:20:20.965Z,4.00
2023-01-09T23:22:51.105Z,4.00
2023-01-09T23:25:21.590Z,4.00
2023-01-09T23:27:51.802Z,4.00
2023-01-09T23:30:24.245Z,3.90
2023-01-09T23:32:54.524Z,3.90
2023-01-09T23:35:25.121Z,4.00
2023-01-09T23:37:55.372Z,4.00
2023-01-09T23:40:26.142Z,4.00
2023-01-09T23:43:10.405Z,3.90
2023-01-09T23:45:44.495Z,3.90
2023-01-09T23:48:17.128Z,3.90
2023-01-09T23:50:52.299Z,3.80
2023-01-09T23:53:24.512Z,3.80
2023-01-09T23:55:56.014Z,3.90
2023-01-09T23:58:27.222Z,3.90
